sensor_id;sensor_type;location;lat;lon;timestamp;P1;durP1;ratioP1;P2;durP2;ratioP2
3779;SDS011;1905;52.482;9.802;2023-02-04T00:00:32;5.93;;;2.03;;
3779;SDS011;1905;52.482;9.802;2023-02-04T00:03:02;11.17;;;1.80;;
3779;SDS011;1905;52.482;9.802;2023-02-04T00:05:43;5.40;;;2.73;;
3779;SDS011;1905;52.482;9.802;2023-02-04T00:08:11;3.63;;;1.50;;
3779;SDS011;1905;52.482;9.802;2023-02-04T00:10:38;5.90;;;2.73;;
3779;SDS011;1905;52.482;9.802;2023-02-04T00:13:07;7.57;;;2.43;;
3779;SDS011;1905;52.482;9.802;2023-02-04T00:15:35;5.37;;;1.70;;
3779;SDS011;1905;52.482;9.802;2023-02-04T00:18:02;7.57;;;2.20;;
3779;SDS011;1905;52.482;9.802;2023-02-04T00:20:31;7.03;;;2.63;;
3779;SDS011;1905;52.482;9.802;2023-02-04T00:22:59;1.97;;;1.60;;
3779;SDS011;1905;52.482;9.802;2023-02-04T00:25:27;3.33;;;1.50;;
3779;SDS011;1905;52.482;9.802;2023-02-04T00:27:55;2.13;;;1.30;;
3779;SDS011;1905;52.482;9.802;2023-02-04T00:30:28;3.37;;;1.63;;
3779;SDS011;1905;52.482;9.802;2023-02-04T00:32:57;7.27;;;2.40;;
3779;SDS011;1905;52.482;9.802;2023-02-04T00:35:25;3.00;;;1.70;;
3779;SDS011;1905;52.482;9.802;2023-02-04T00:37:53;4.17;;;1.20;;
3779;SDS011;1905;52.482;9.802;2023-02-04T00:40:20;3.50;;;1.73;;
3779;SDS011;1905;52.482;9.802;2023-02-04T00:42:48;4.47;;;1.60;;
3779;SDS011;1905;52.482;9.802;2023-02-04T00:45:16;2.67;;;1.37;;
3779;SDS011;1905;52.482;9.802;2023-02-04T00:47:44;4.23;;;1.90;;
3779;SDS011;1905;52.482;9.802;2023-02-04T00:50:12;1.30;;;1.20;;
3779;SDS011;1905;52.482;9.802;2023-02-04T00:52:42;1.50;;;1.27;;
3779;SDS011;1905;52.482;9.802;2023-02-04T00:55:09;4.83;;;1.30;;
3779;SDS011;1905;52.482;9.802;2023-02-04T00:57:37;0.90;;;0.90;;
3779;SDS011;1905;52.482;9.802;2023-02-04T01:00:06;1.60;;;1.00;;
3779;SDS011;1905;52.482;9.802;2023-02-04T01:02:36;1.13;;;0.97;;
3779;SDS011;1905;52.482;9.802;2023-02-04T01:05:07;7.33;;;1.20;;
3779;SDS011;1905;52.482;9.802;2023-02-04T01:07:35;1.37;;;1.30;;
3779;SDS011;1905;52.482;9.802;2023-02-04T01:10:04;2.30;;;1.47;;
3779;SDS011;1905;52.482;9.802;2023-02-04T01:12:32;2.10;;;0.73;;
3779;SDS011;1905;52.482;9.802;2023-02-04T01:15:00;8.23;;;1.47;;
3779;SDS011;1905;52.482;9.802;2023-02-04T01:17:29;1.03;;;1.03;;
3779;SDS011;1905;52.482;9.802;2023-02-04T01:19:57;3.17;;;0.97;;
3779;SDS011;1905;52.482;9.802;2023-02-04T01:22:26;1.20;;;1.10;;
3779;SDS011;1905;52.482;9.802;2023-02-04T01:24:54;1.37;;;1.27;;
3779;SDS011;1905;52.482;9.802;2023-02-04T01:27:41;1.20;;;1.10;;
3779;SDS011;1905;52.482;9.802;2023-02-04T01:30:09;1.20;;;0.80;;
3779;SDS011;1905;52.482;9.802;2023-02-04T01:32:43;0.90;;;0.87;;
3779;SDS011;1905;52.482;9.802;2023-02-04T01:35:12;1.17;;;1.07;;
3779;SDS011;1905;52.482;9.802;2023-02-04T01:37:41;3.97;;;0.77;;
3779;SDS011;1905;52.482;9.802;2023-02-04T01:40:09;4.57;;;1.20;;
3779;SDS011;1905;52.482;9.802;2023-02-04T01:42:37;0.90;;;0.90;;
3779;SDS011;1905;52.482;9.802;2023-02-04T01:45:06;0.87;;;0.87;;
3779;SDS011;1905;52.482;9.802;2023-02-04T01:47:34;1.30;;;0.90;;
3779;SDS011;1905;52.482;9.802;2023-02-04T01:50:06;2.60;;;0.90;;
3779;SDS011;1905;52.482;9.802;2023-02-04T01:52:38;0.97;;;0.97;;
3779;SDS011;1905;52.482;9.802;2023-02-04T01:55:11;1.23;;;1.23;;
3779;SDS011;1905;52.482;9.802;2023-02-04T01:57:41;1.03;;;0.93;;
3779;SDS011;1905;52.482;9.802;2023-02-04T02:00:13;2.40;;;0.97;;
3779;SDS011;1905;52.482;9.802;2023-02-04T02:02:46;1.43;;;1.10;;
3779;SDS011;1905;52.482;9.802;2023-02-04T02:05:18;4.80;;;1.20;;
3779;SDS011;1905;52.482;9.802;2023-02-04T02:07:49;1.33;;;1.23;;
3779;SDS011;1905;52.482;9.802;2023-02-04T02:10:24;1.27;;;1.17;;
3779;SDS011;1905;52.482;9.802;2023-02-04T02:12:57;1.03;;;1.03;;
3779;SDS011;1905;52.482;9.802;2023-02-04T02:15:28;0.87;;;0.87;;
3779;SDS011;1905;52.482;9.802;2023-02-04T02:17:56;2.40;;;0.97;;
3779;SDS011;1905;52.482;9.802;2023-02-04T02:20:24;1.20;;;1.10;;
3779;SDS011;1905;52.482;9.802;2023-02-04T02:22:57;1.20;;;1.10;;
3779;SDS011;1905;52.482;9.802;2023-02-04T02:25:35;1.30;;;1.20;;
3779;SDS011;1905;52.482;9.802;2023-02-04T02:29:30;1.23;;;1.17;;
3779;SDS011;1905;52.482;9.802;2023-02-04T02:32:55;1.50;;;1.40;;
3779;SDS011;1905;52.482;9.802;2023-02-04T02:35:33;1.73;;;1.20;;
3779;SDS011;1905;52.482;9.802;2023-02-04T02:38:18;1.43;;;1.33;;
3779;SDS011;1905;52.482;9.802;2023-02-04T02:40:55;1.47;;;1.37;;
3779;SDS011;1905;52.482;9.802;2023-02-04T02:43:24;1.90;;;1.63;;
3779;SDS011;1905;52.482;9.802;2023-02-04T02:45:56;2.37;;;2.17;;
3779;SDS011;1905;52.482;9.802;2023-02-04T02:48:26;2.80;;;0.90;;
3779;SDS011;1905;52.482;9.802;2023-02-04T02:50:53;1.23;;;1.10;;
3779;SDS011;1905;52.482;9.802;2023-02-04T02:53:21;1.20;;;1.10;;
3779;SDS011;1905;52.482;9.802;2023-02-04T02:55:49;0.93;;;0.93;;
3779;SDS011;1905;52.482;9.802;2023-02-04T02:58:23;2.50;;;1.10;;
3779;SDS011;1905;52.482;9.802;2023-02-04T03:00:55;1.70;;;1.33;;
3779;SDS011;1905;52.482;9.802;2023-02-04T03:03:24;1.10;;;1.00;;
3779;SDS011;1905;52.482;9.802;2023-02-04T03:05:54;1.30;;;0.90;;
3779;SDS011;1905;52.482;9.802;2023-02-04T03:08:26;4.63;;;1.40;;
3779;SDS011;1905;52.482;9.802;2023-02-04T03:10:54;0.87;;;0.87;;
3779;SDS011;1905;52.482;9.802;2023-02-04T03:13:24;2.43;;;1.10;;
3779;SDS011;1905;52.482;9.802;2023-02-04T03:15:52;2.90;;;1.20;;
3779;SDS011;1905;52.482;9.802;2023-02-04T03:18:20;1.53;;;1.43;;
3779;SDS011;1905;52.482;9.802;2023-02-04T03:20:49;1.07;;;0.90;;
3779;SDS011;1905;52.482;9.802;2023-02-04T03:23:18;1.10;;;1.00;;
3779;SDS011;1905;52.482;9.802;2023-02-04T03:25:46;1.73;;;1.37;;
3779;SDS011;1905;52.482;9.802;2023-02-04T03:28:15;1.23;;;1.10;;
3779;SDS011;1905;52.482;9.802;2023-02-04T03:30:44;1.30;;;1.10;;
3779;SDS011;1905;52.482;9.802;2023-02-04T03:33:21;2.00;;;1.13;;
3779;SDS011;1905;52.482;9.802;2023-02-04T03:35:50;0.80;;;0.80;;
3779;SDS011;1905;52.482;9.802;2023-02-04T03:38:17;1.30;;;1.20;;
3779;SDS011;1905;52.482;9.802;2023-02-04T03:40:45;1.00;;;1.00;;
3779;SDS011;1905;52.482;9.802;2023-02-04T03:43:13;2.00;;;1.23;;
3779;SDS011;1905;52.482;9.802;2023-02-04T03:45:40;1.10;;;1.00;;
3779;SDS011;1905;52.482;9.802;2023-02-04T03:48:12;1.60;;;1.20;;
3779;SDS011;1905;52.482;9.802;2023-02-04T03:50:39;3.03;;;1.93;;
3779;SDS011;1905;52.482;9.802;2023-02-04T03:53:07;1.00;;;1.00;;
3779;SDS011;1905;52.482;9.802;2023-02-04T03:55:35;1.40;;;1.30;;
3779;SDS011;1905;52.482;9.802;2023-02-04T03:58:03;0.90;;;0.90;;
3779;SDS011;1905;52.482;9.802;2023-02-04T04:00:31;1.53;;;1.20;;
3779;SDS011;1905;52.482;9.802;2023-02-04T04:02:59;1.50;;;1.37;;
3779;SDS011;1905;52.482;9.802;2023-02-04T04:05:28;1.30;;;1.20;;
3779;SDS011;1905;52.482;9.802;2023-02-04T04:07:55;5.57;;;1.33;;
3779;SDS011;1905;52.482;9.802;2023-02-04T04:10:24;1.30;;;1.27;;
3779;SDS011;1905;52.482;9.802;2023-02-04T04:12:51;1.10;;;1.00;;
3779;SDS011;1905;52.482;9.802;2023-02-04T04:15:19;2.40;;;1.10;;
3779;SDS011;1905;52.482;9.802;2023-02-04T04:17:46;0.90;;;0.90;;
3779;SDS011;1905;52.482;9.802;2023-02-04T04:20:14;1.10;;;1.00;;
3779;SDS011;1905;52.482;9.802;2023-02-04T04:22:43;1.53;;;1.40;;
3779;SDS011;1905;52.482;9.802;2023-02-04T04:25:11;1.10;;;1.00;;
3779;SDS011;1905;52.482;9.802;2023-02-04T04:27:39;1.20;;;1.10;;
3779;SDS011;1905;52.482;9.802;2023-02-04T04:30:07;2.03;;;1.20;;
3779;SDS011;1905;52.482;9.802;2023-02-04T04:32:35;2.83;;;1.17;;
3779;SDS011;1905;52.482;9.802;2023-02-04T04:35:03;0.90;;;0.90;;
3779;SDS011;1905;52.482;9.802;2023-02-04T04:37:31;1.20;;;1.10;;
3779;SDS011;1905;52.482;9.802;2023-02-04T04:40:01;1.30;;;1.20;;
3779;SDS011;1905;52.482;9.802;2023-02-04T04:42:29;1.77;;;1.67;;
3779;SDS011;1905;52.482;9.802;2023-02-04T04:44:56;1.20;;;1.17;;
3779;SDS011;1905;52.482;9.802;2023-02-04T04:47:24;1.30;;;1.00;;
3779;SDS011;1905;52.482;9.802;2023-02-04T04:49:51;1.23;;;1.10;;
3779;SDS011;1905;52.482;9.802;2023-02-04T04:52:19;2.97;;;1.17;;
3779;SDS011;1905;52.482;9.802;2023-02-04T04:54:46;1.17;;;1.17;;
3779;SDS011;1905;52.482;9.802;2023-02-04T04:57:15;1.07;;;1.07;;
3779;SDS011;1905;52.482;9.802;2023-02-04T04:59:43;1.90;;;1.10;;
3779;SDS011;1905;52.482;9.802;2023-02-04T05:02:10;5.53;;;1.33;;
3779;SDS011;1905;52.482;9.802;2023-02-04T05:04:38;1.30;;;1.20;;
3779;SDS011;1905;52.482;9.802;2023-02-04T05:07:05;1.83;;;1.00;;
3779;SDS011;1905;52.482;9.802;2023-02-04T05:09:33;1.00;;;1.00;;
3779;SDS011;1905;52.482;9.802;2023-02-04T05:12:00;2.20;;;1.00;;
3779;SDS011;1905;52.482;9.802;2023-02-04T05:14:32;1.20;;;1.10;;
3779;SDS011;1905;52.482;9.802;2023-02-04T05:16:59;1.33;;;1.20;;
3779;SDS011;1905;52.482;9.802;2023-02-04T05:19:27;1.20;;;1.10;;
3779;SDS011;1905;52.482;9.802;2023-02-04T05:21:55;1.10;;;1.00;;
3779;SDS011;1905;52.482;9.802;2023-02-04T05:24:23;0.90;;;0.90;;
3779;SDS011;1905;52.482;9.802;2023-02-04T05:26:50;1.23;;;1.20;;
3779;SDS011;1905;52.482;9.802;2023-02-04T05:29:18;1.50;;;1.40;;
3779;SDS011;1905;52.482;9.802;2023-02-04T05:31:47;1.33;;;1.13;;
3779;SDS011;1905;52.482;9.802;2023-02-04T05:34:14;0.90;;;0.90;;
3779;SDS011;1905;52.482;9.802;2023-02-04T05:36:42;1.37;;;1.23;;
3779;SDS011;1905;52.482;9.802;2023-02-04T05:39:10;1.23;;;1.13;;
3779;SDS011;1905;52.482;9.802;2023-02-04T05:41:37;3.03;;;1.13;;
3779;SDS011;1905;52.482;9.802;2023-02-04T05:44:05;1.20;;;1.10;;
3779;SDS011;1905;52.482;9.802;2023-02-04T05:46:33;1.10;;;1.10;;
3779;SDS011;1905;52.482;9.802;2023-02-04T05:49:03;2.30;;;1.10;;
3779;SDS011;1905;52.482;9.802;2023-02-04T05:51:31;1.20;;;1.10;;
3779;SDS011;1905;52.482;9.802;2023-02-04T05:53:58;1.77;;;1.10;;
3779;SDS011;1905;52.482;9.802;2023-02-04T05:56:26;1.00;;;1.00;;
3779;SDS011;1905;52.482;9.802;2023-02-04T05:58:54;1.37;;;1.27;;
3779;SDS011;1905;52.482;9.802;2023-02-04T06:01:21;1.17;;;1.00;;
3779;SDS011;1905;52.482;9.802;2023-02-04T06:03:49;1.00;;;1.00;;
3779;SDS011;1905;52.482;9.802;2023-02-04T06:06:18;1.93;;;1.83;;
3779;SDS011;1905;52.482;9.802;2023-02-04T06:08:45;1.13;;;1.03;;
3779;SDS011;1905;52.482;9.802;2023-02-04T06:11:13;2.10;;;1.20;;
3779;SDS011;1905;52.482;9.802;2023-02-04T06:13:40;1.30;;;1.10;;
3779;SDS011;1905;52.482;9.802;2023-02-04T06:16:08;1.33;;;1.20;;
3779;SDS011;1905;52.482;9.802;2023-02-04T06:18:35;1.00;;;1.00;;
3779;SDS011;1905;52.482;9.802;2023-02-04T06:21:03;1.10;;;1.00;;
3779;SDS011;1905;52.482;9.802;2023-02-04T06:23:32;1.67;;;1.37;;
3779;SDS011;1905;52.482;9.802;2023-02-04T06:26:00;1.20;;;1.20;;
3779;SDS011;1905;52.482;9.802;2023-02-04T06:28:28;1.30;;;1.20;;
3779;SDS011;1905;52.482;9.802;2023-02-04T06:30:55;1.20;;;1.10;;
3779;SDS011;1905;52.482;9.802;2023-02-04T06:33:23;1.53;;;1.43;;
3779;SDS011;1905;52.482;9.802;2023-02-04T06:35:50;1.20;;;1.20;;
3779;SDS011;1905;52.482;9.802;2023-02-04T06:38:18;1.77;;;1.13;;
3779;SDS011;1905;52.482;9.802;2023-02-04T06:40:47;1.57;;;1.47;;
3779;SDS011;1905;52.482;9.802;2023-02-04T06:43:18;1.33;;;1.23;;
3779;SDS011;1905;52.482;9.802;2023-02-04T06:45:47;1.10;;;1.10;;
3779;SDS011;1905;52.482;9.802;2023-02-04T06:48:16;4.00;;;1.27;;
3779;SDS011;1905;52.482;9.802;2023-02-04T06:50:44;1.27;;;1.10;;
3779;SDS011;1905;52.482;9.802;2023-02-04T06:53:11;1.27;;;1.17;;
3779;SDS011;1905;52.482;9.802;2023-02-04T06:55:39;2.57;;;1.50;;
3779;SDS011;1905;52.482;9.802;2023-02-04T06:58:08;1.17;;;1.10;;
3779;SDS011;1905;52.482;9.802;2023-02-04T07:00:35;1.17;;;1.17;;
3779;SDS011;1905;52.482;9.802;2023-02-04T07:03:03;1.33;;;1.10;;
3779;SDS011;1905;52.482;9.802;2023-02-04T07:05:32;3.10;;;1.13;;
3779;SDS011;1905;52.482;9.802;2023-02-04T07:08:00;1.50;;;1.30;;
3779;SDS011;1905;52.482;9.802;2023-02-04T07:10:27;2.20;;;1.20;;
3779;SDS011;1905;52.482;9.802;2023-02-04T07:12:56;2.50;;;1.27;;
3779;SDS011;1905;52.482;9.802;2023-02-04T07:15:25;2.87;;;1.30;;
3779;SDS011;1905;52.482;9.802;2023-02-04T07:17:52;1.37;;;1.23;;
3779;SDS011;1905;52.482;9.802;2023-02-04T07:20:20;1.73;;;1.33;;
3779;SDS011;1905;52.482;9.802;2023-02-04T07:22:48;3.10;;;1.67;;
3779;SDS011;1905;52.482;9.802;2023-02-04T07:25:15;1.87;;;1.60;;
3779;SDS011;1905;52.482;9.802;2023-02-04T07:27:43;1.60;;;1.50;;
3779;SDS011;1905;52.482;9.802;2023-02-04T07:30:11;1.37;;;1.17;;
3779;SDS011;1905;52.482;9.802;2023-02-04T07:32:40;1.90;;;1.80;;
3779;SDS011;1905;52.482;9.802;2023-02-04T07:35:08;2.30;;;2.10;;
3779;SDS011;1905;52.482;9.802;2023-02-04T07:37:36;4.37;;;2.30;;
3779;SDS011;1905;52.482;9.802;2023-02-04T07:40:05;1.60;;;1.50;;
3779;SDS011;1905;52.482;9.802;2023-02-04T07:42:33;2.07;;;1.70;;
3779;SDS011;1905;52.482;9.802;2023-02-04T07:45:08;1.83;;;1.73;;
3779;SDS011;1905;52.482;9.802;2023-02-04T07:47:36;2.23;;;2.13;;
3779;SDS011;1905;52.482;9.802;2023-02-04T07:50:05;3.20;;;2.20;;
3779;SDS011;1905;52.482;9.802;2023-02-04T07:52:33;2.13;;;1.90;;
3779;SDS011;1905;52.482;9.802;2023-02-04T07:55:01;2.87;;;2.03;;
3779;SDS011;1905;52.482;9.802;2023-02-04T07:57:28;1.87;;;1.77;;
3779;SDS011;1905;52.482;9.802;2023-02-04T07:59:56;3.53;;;1.87;;
3779;SDS011;1905;52.482;9.802;2023-02-04T08:02:24;4.50;;;1.93;;
3779;SDS011;1905;52.482;9.802;2023-02-04T08:04:52;1.87;;;1.53;;
3779;SDS011;1905;52.482;9.802;2023-02-04T08:07:21;2.83;;;2.63;;
3779;SDS011;1905;52.482;9.802;2023-02-04T08:09:48;2.80;;;2.67;;
3779;SDS011;1905;52.482;9.802;2023-02-04T08:12:16;3.47;;;3.17;;
3779;SDS011;1905;52.482;9.802;2023-02-04T08:14:43;2.10;;;2.00;;
3779;SDS011;1905;52.482;9.802;2023-02-04T08:17:11;1.70;;;1.60;;
3779;SDS011;1905;52.482;9.802;2023-02-04T08:19:38;2.10;;;1.90;;
3779;SDS011;1905;52.482;9.802;2023-02-04T08:22:06;2.23;;;2.03;;
3779;SDS011;1905;52.482;9.802;2023-02-04T08:24:38;2.67;;;2.30;;
3779;SDS011;1905;52.482;9.802;2023-02-04T08:27:06;5.23;;;2.20;;
3779;SDS011;1905;52.482;9.802;2023-02-04T08:29:37;2.00;;;1.90;;
3779;SDS011;1905;52.482;9.802;2023-02-04T08:32:04;2.07;;;1.93;;
3779;SDS011;1905;52.482;9.802;2023-02-04T08:34:32;2.70;;;2.50;;
3779;SDS011;1905;52.482;9.802;2023-02-04T08:37:00;2.77;;;2.23;;
3779;SDS011;1905;52.482;9.802;2023-02-04T08:39:28;3.23;;;2.73;;
3779;SDS011;1905;52.482;9.802;2023-02-04T08:41:57;2.43;;;2.23;;
3779;SDS011;1905;52.482;9.802;2023-02-04T08:44:25;3.50;;;2.23;;
3779;SDS011;1905;52.482;9.802;2023-02-04T08:46:52;3.43;;;2.40;;
3779;SDS011;1905;52.482;9.802;2023-02-04T08:49:20;3.03;;;2.20;;
3779;SDS011;1905;52.482;9.802;2023-02-04T08:51:50;2.70;;;2.50;;
3779;SDS011;1905;52.482;9.802;2023-02-04T08:54:18;2.53;;;2.33;;
3779;SDS011;1905;52.482;9.802;2023-02-04T08:56:45;4.23;;;2.40;;
3779;SDS011;1905;52.482;9.802;2023-02-04T08:59:14;3.33;;;2.90;;
3779;SDS011;1905;52.482;9.802;2023-02-04T09:01:42;3.70;;;2.87;;
3779;SDS011;1905;52.482;9.802;2023-02-04T09:04:16;2.77;;;2.47;;
3779;SDS011;1905;52.482;9.802;2023-02-04T09:06:44;2.87;;;2.63;;
3779;SDS011;1905;52.482;9.802;2023-02-04T09:09:11;3.80;;;2.50;;
3779;SDS011;1905;52.482;9.802;2023-02-04T09:11:39;2.77;;;2.57;;
3779;SDS011;1905;52.482;9.802;2023-02-04T09:14:10;6.93;;;2.17;;
3779;SDS011;1905;52.482;9.802;2023-02-04T09:16:40;3.60;;;2.60;;
3779;SDS011;1905;52.482;9.802;2023-02-04T09:19:08;1.70;;;1.60;;
3779;SDS011;1905;52.482;9.802;2023-02-04T09:21:56;3.23;;;2.23;;
3779;SDS011;1905;52.482;9.802;2023-02-04T09:24:41;2.30;;;2.10;;
3779;SDS011;1905;52.482;9.802;2023-02-04T09:27:13;2.17;;;1.97;;
3779;SDS011;1905;52.482;9.802;2023-02-04T09:29:51;1.80;;;1.70;;
3779;SDS011;1905;52.482;9.802;2023-02-04T09:32:22;2.10;;;1.60;;
3779;SDS011;1905;52.482;9.802;2023-02-04T09:34:55;2.37;;;1.53;;
3779;SDS011;1905;52.482;9.802;2023-02-04T09:37:23;2.80;;;2.37;;
3779;SDS011;1905;52.482;9.802;2023-02-04T09:39:54;2.00;;;1.90;;
3779;SDS011;1905;52.482;9.802;2023-02-04T09:42:21;2.50;;;1.90;;
3779;SDS011;1905;52.482;9.802;2023-02-04T09:44:52;2.80;;;2.17;;
3779;SDS011;1905;52.482;9.802;2023-02-04T09:47:21;1.90;;;1.57;;
3779;SDS011;1905;52.482;9.802;2023-02-04T09:49:51;2.50;;;2.40;;
3779;SDS011;1905;52.482;9.802;2023-02-04T09:52:19;3.07;;;2.37;;
3779;SDS011;1905;52.482;9.802;2023-02-04T09:54:49;3.07;;;2.77;;
3779;SDS011;1905;52.482;9.802;2023-02-04T09:57:17;4.47;;;3.43;;
3779;SDS011;1905;52.482;9.802;2023-02-04T09:59:54;2.33;;;2.20;;
3779;SDS011;1905;52.482;9.802;2023-02-04T10:02:24;4.43;;;3.43;;
3779;SDS011;1905;52.482;9.802;2023-02-04T10:04:54;2.23;;;2.03;;
3779;SDS011;1905;52.482;9.802;2023-02-04T10:07:24;2.20;;;2.00;;
3779;SDS011;1905;52.482;9.802;2023-02-04T10:09:52;4.20;;;1.73;;
3779;SDS011;1905;52.482;9.802;2023-02-04T10:12:21;2.20;;;2.10;;
3779;SDS011;1905;52.482;9.802;2023-02-04T10:14:48;1.90;;;1.67;;
3779;SDS011;1905;52.482;9.802;2023-02-04T10:17:17;6.17;;;3.33;;
3779;SDS011;1905;52.482;9.802;2023-02-04T10:19:48;2.40;;;2.00;;
3779;SDS011;1905;52.482;9.802;2023-02-04T10:22:17;1.43;;;1.33;;
3779;SDS011;1905;52.482;9.802;2023-02-04T10:24:46;2.03;;;1.93;;
3779;SDS011;1905;52.482;9.802;2023-02-04T10:27:14;2.03;;;1.83;;
3779;SDS011;1905;52.482;9.802;2023-02-04T10:29:42;1.90;;;1.80;;
3779;SDS011;1905;52.482;9.802;2023-02-04T10:32:27;5.43;;;2.73;;
3779;SDS011;1905;52.482;9.802;2023-02-04T10:34:58;2.30;;;2.10;;
3779;SDS011;1905;52.482;9.802;2023-02-04T10:37:27;3.97;;;2.83;;
3779;SDS011;1905;52.482;9.802;2023-02-04T10:39:57;9.03;;;3.87;;
3779;SDS011;1905;52.482;9.802;2023-02-04T10:42:25;4.37;;;2.13;;
3779;SDS011;1905;52.482;9.802;2023-02-04T10:44:53;2.00;;;1.90;;
3779;SDS011;1905;52.482;9.802;2023-02-04T10:47:22;1.60;;;1.50;;
3779;SDS011;1905;52.482;9.802;2023-02-04T10:49:53;2.67;;;2.57;;
3779;SDS011;1905;52.482;9.802;2023-02-04T10:52:23;2.30;;;2.10;;
3779;SDS011;1905;52.482;9.802;2023-02-04T10:55:00;1.53;;;1.53;;
3779;SDS011;1905;52.482;9.802;2023-02-04T10:57:31;3.07;;;2.93;;
3779;SDS011;1905;52.482;9.802;2023-02-04T11:00:02;2.27;;;1.90;;
3779;SDS011;1905;52.482;9.802;2023-02-04T11:02:36;2.23;;;2.00;;
3779;SDS011;1905;52.482;9.802;2023-02-04T11:05:10;2.23;;;1.90;;
3779;SDS011;1905;52.482;9.802;2023-02-04T11:07:42;4.83;;;1.93;;
3779;SDS011;1905;52.482;9.802;2023-02-04T11:10:14;2.40;;;1.63;;
3779;SDS011;1905;52.482;9.802;2023-02-04T11:12:45;2.23;;;2.10;;
3779;SDS011;1905;52.482;9.802;2023-02-04T11:15:41;3.33;;;3.07;;
3779;SDS011;1905;52.482;9.802;2023-02-04T11:18:11;1.80;;;1.67;;
3779;SDS011;1905;52.482;9.802;2023-02-04T11:20:52;5.90;;;2.03;;
3779;SDS011;1905;52.482;9.802;2023-02-04T11:23:33;2.00;;;1.90;;
3779;SDS011;1905;52.482;9.802;2023-02-04T11:26:07;2.50;;;2.30;;
3779;SDS011;1905;52.482;9.802;2023-02-04T11:28:50;2.03;;;1.93;;
3779;SDS011;1905;52.482;9.802;2023-02-04T11:31:27;4.97;;;2.97;;
3779;SDS011;1905;52.482;9.802;2023-02-04T11:34:09;6.67;;;2.60;;
3779;SDS011;1905;52.482;9.802;2023-02-04T11:36:54;2.00;;;1.83;;
3779;SDS011;1905;52.482;9.802;2023-02-04T11:39:27;1.80;;;1.57;;
3779;SDS011;1905;52.482;9.802;2023-02-04T11:42:03;2.60;;;2.17;;
3779;SDS011;1905;52.482;9.802;2023-02-04T11:44:32;7.40;;;5.50;;
3779;SDS011;1905;52.482;9.802;2023-02-04T11:47:00;7.37;;;5.77;;
3779;SDS011;1905;52.482;9.802;2023-02-04T11:49:29;2.83;;;2.33;;
3779;SDS011;1905;52.482;9.802;2023-02-04T11:52:03;4.23;;;3.93;;
3779;SDS011;1905;52.482;9.802;2023-02-04T11:54:35;3.40;;;3.10;;
3779;SDS011;1905;52.482;9.802;2023-02-04T11:57:03;2.17;;;1.80;;
3779;SDS011;1905;52.482;9.802;2023-02-04T11:59:30;1.97;;;1.70;;
3779;SDS011;1905;52.482;9.802;2023-02-04T12:02:05;2.63;;;1.90;;
3779;SDS011;1905;52.482;9.802;2023-02-04T12:04:48;1.93;;;1.63;;
3779;SDS011;1905;52.482;9.802;2023-02-04T12:07:20;2.30;;;1.87;;
3779;SDS011;1905;52.482;9.802;2023-02-04T12:09:51;1.73;;;1.63;;
3779;SDS011;1905;52.482;9.802;2023-02-04T12:12:22;4.40;;;1.60;;
3779;SDS011;1905;52.482;9.802;2023-02-04T12:15:01;2.17;;;2.07;;
3779;SDS011;1905;52.482;9.802;2023-02-04T12:17:30;2.83;;;1.70;;
3779;SDS011;1905;52.482;9.802;2023-02-04T12:19:58;2.67;;;1.90;;
3779;SDS011;1905;52.482;9.802;2023-02-04T12:22:25;2.03;;;1.77;;
3779;SDS011;1905;52.482;9.802;2023-02-04T12:24:54;2.90;;;2.03;;
3779;SDS011;1905;52.482;9.802;2023-02-04T12:27:22;2.03;;;1.70;;
3779;SDS011;1905;52.482;9.802;2023-02-04T12:29:50;2.03;;;1.93;;
3779;SDS011;1905;52.482;9.802;2023-02-04T12:32:17;2.53;;;2.33;;
3779;SDS011;1905;52.482;9.802;2023-02-04T12:34:44;1.93;;;1.83;;
3779;SDS011;1905;52.482;9.802;2023-02-04T12:37:12;1.60;;;1.50;;
3779;SDS011;1905;52.482;9.802;2023-02-04T12:39:39;1.97;;;1.87;;
3779;SDS011;1905;52.482;9.802;2023-02-04T12:42:08;1.80;;;1.70;;
3779;SDS011;1905;52.482;9.802;2023-02-04T12:44:36;5.80;;;2.20;;
3779;SDS011;1905;52.482;9.802;2023-02-04T12:47:04;6.03;;;2.63;;
3779;SDS011;1905;52.482;9.802;2023-02-04T12:49:31;2.73;;;2.53;;
3779;SDS011;1905;52.482;9.802;2023-02-04T12:51:59;2.70;;;1.60;;
3779;SDS011;1905;52.482;9.802;2023-02-04T12:54:27;7.93;;;2.80;;
3779;SDS011;1905;52.482;9.802;2023-02-04T12:56:54;2.17;;;1.90;;
3779;SDS011;1905;52.482;9.802;2023-02-04T12:59:24;1.87;;;1.77;;
3779;SDS011;1905;52.482;9.802;2023-02-04T13:01:52;4.50;;;3.90;;
3779;SDS011;1905;52.482;9.802;2023-02-04T13:04:20;2.27;;;2.07;;
3779;SDS011;1905;52.482;9.802;2023-02-04T13:06:47;4.40;;;3.20;;
3779;SDS011;1905;52.482;9.802;2023-02-04T13:09:15;3.10;;;1.77;;
3779;SDS011;1905;52.482;9.802;2023-02-04T13:11:42;1.77;;;1.67;;
3779;SDS011;1905;52.482;9.802;2023-02-04T13:14:10;2.37;;;2.07;;
3779;SDS011;1905;52.482;9.802;2023-02-04T13:16:39;3.77;;;2.50;;
3779;SDS011;1905;52.482;9.802;2023-02-04T13:19:06;2.10;;;2.00;;
3779;SDS011;1905;52.482;9.802;2023-02-04T13:21:34;1.57;;;1.47;;
3779;SDS011;1905;52.482;9.802;2023-02-04T13:24:01;4.33;;;2.40;;
3779;SDS011;1905;52.482;9.802;2023-02-04T13:26:29;2.73;;;2.10;;
3779;SDS011;1905;52.482;9.802;2023-02-04T13:28:56;2.40;;;2.30;;
3779;SDS011;1905;52.482;9.802;2023-02-04T13:31:24;2.33;;;2.13;;
3779;SDS011;1905;52.482;9.802;2023-02-04T13:33:53;3.77;;;2.70;;
3779;SDS011;1905;52.482;9.802;2023-02-04T13:36:20;3.90;;;3.50;;
3779;SDS011;1905;52.482;9.802;2023-02-04T13:38:48;2.33;;;2.13;;
3779;SDS011;1905;52.482;9.802;2023-02-04T13:41:15;3.20;;;2.87;;
3779;SDS011;1905;52.482;9.802;2023-02-04T13:43:44;2.00;;;1.90;;
3779;SDS011;1905;52.482;9.802;2023-02-04T13:46:11;2.50;;;1.87;;
3779;SDS011;1905;52.482;9.802;2023-02-04T13:48:42;2.70;;;2.47;;
3779;SDS011;1905;52.482;9.802;2023-02-04T13:51:11;3.20;;;2.10;;
3779;SDS011;1905;52.482;9.802;2023-02-04T13:53:38;1.97;;;1.87;;
3779;SDS011;1905;52.482;9.802;2023-02-04T13:56:06;2.50;;;2.00;;
3779;SDS011;1905;52.482;9.802;2023-02-04T13:58:34;2.40;;;1.83;;
3779;SDS011;1905;52.482;9.802;2023-02-04T14:01:01;2.30;;;2.10;;
3779;SDS011;1905;52.482;9.802;2023-02-04T14:03:29;2.70;;;2.50;;
3779;SDS011;1905;52.482;9.802;2023-02-04T14:05:57;2.40;;;2.20;;
3779;SDS011;1905;52.482;9.802;2023-02-04T14:08:25;1.87;;;1.77;;
3779;SDS011;1905;52.482;9.802;2023-02-04T14:10:53;1.53;;;1.43;;
3779;SDS011;1905;52.482;9.802;2023-02-04T14:13:21;2.60;;;1.90;;
3779;SDS011;1905;52.482;9.802;2023-02-04T14:15:48;2.37;;;2.10;;
3779;SDS011;1905;52.482;9.802;2023-02-04T14:18:16;1.70;;;1.60;;
3779;SDS011;1905;52.482;9.802;2023-02-04T14:20:43;1.77;;;1.67;;
3779;SDS011;1905;52.482;9.802;2023-02-04T14:23:11;5.50;;;2.70;;
3779;SDS011;1905;52.482;9.802;2023-02-04T14:25:40;3.20;;;2.20;;
3779;SDS011;1905;52.482;9.802;2023-02-04T14:28:07;1.73;;;1.63;;
3779;SDS011;1905;52.482;9.802;2023-02-04T14:30:35;2.10;;;2.00;;
3779;SDS011;1905;52.482;9.802;2023-02-04T14:33:03;2.10;;;1.90;;
3779;SDS011;1905;52.482;9.802;2023-02-04T14:35:31;2.70;;;2.23;;
3779;SDS011;1905;52.482;9.802;2023-02-04T14:37:58;2.60;;;2.40;;
3779;SDS011;1905;52.482;9.802;2023-02-04T14:40:26;3.47;;;2.10;;
3779;SDS011;1905;52.482;9.802;2023-02-04T14:42:55;2.73;;;2.00;;
3779;SDS011;1905;52.482;9.802;2023-02-04T14:45:22;2.50;;;2.30;;
3779;SDS011;1905;52.482;9.802;2023-02-04T14:47:50;2.10;;;2.00;;
3779;SDS011;1905;52.482;9.802;2023-02-04T14:50:20;1.93;;;1.83;;
3779;SDS011;1905;52.482;9.802;2023-02-04T14:52:52;1.77;;;1.67;;
3779;SDS011;1905;52.482;9.802;2023-02-04T14:55:19;2.57;;;2.03;;
3779;SDS011;1905;52.482;9.802;2023-02-04T14:57:47;2.33;;;2.17;;
3779;SDS011;1905;52.482;9.802;2023-02-04T15:00:16;2.00;;;1.60;;
3779;SDS011;1905;52.482;9.802;2023-02-04T15:02:44;2.53;;;2.33;;
3779;SDS011;1905;52.482;9.802;2023-02-04T15:05:12;3.57;;;2.90;;
3779;SDS011;1905;52.482;9.802;2023-02-04T15:07:40;3.20;;;2.70;;
3779;SDS011;1905;52.482;9.802;2023-02-04T15:10:08;2.63;;;2.33;;
3779;SDS011;1905;52.482;9.802;2023-02-04T15:12:40;3.07;;;2.87;;
3779;SDS011;1905;52.482;9.802;2023-02-04T15:15:08;3.00;;;2.80;;
3779;SDS011;1905;52.482;9.802;2023-02-04T15:17:39;4.73;;;2.63;;
3779;SDS011;1905;52.482;9.802;2023-02-04T15:20:07;4.33;;;2.60;;
3779;SDS011;1905;52.482;9.802;2023-02-04T15:22:36;5.20;;;3.70;;
3779;SDS011;1905;52.482;9.802;2023-02-04T15:25:04;4.97;;;2.47;;
3779;SDS011;1905;52.482;9.802;2023-02-04T15:27:32;1.77;;;1.67;;
3779;SDS011;1905;52.482;9.802;2023-02-04T15:30:00;5.57;;;3.57;;